Latest Weather Observations for Kyabram

IDV60801

Issued at 9:31 pm EST Tuesday 7 July 2015 (issued every 30 minutes, with the page automatically refreshed every 10 minutes)

About weather observations | Map of weather stations | Latest weather observations for VIC | Other Formats
Station Details ID: 080091 Name: KYABRAM Lat: -36.34 Lon: 145.06 Height: 105.0 m
Data from the previous 72 hours. | See also: Recent months at Kyabram
Date/Time
EST
Temp
°C
App
Temp
°C
Dew
Point
Rel
Hum
%
Delta-T
°C
Wind Press
QNH
hPa
Press
MSL
hPa
Rain
since 9 am
mm
Dir
 
Spd
km/h
Gust
km/h
Spd
kts
Gust
kts
07/09:30pm 3.2 1.7 3.2 100 0.0 CALM 0 0 0 0 - - 0.2
07/09:00pm 3.7 2.3 3.7 100 0.0 CALM 0 0 0 0 - - 0.2
07/08:30pm 4.5 3.3 4.5 100 0.0 CALM 0 0 0 0 - - 0.2
07/08:00pm 4.2 2.9 4.1 99 0.0 CALM 0 0 0 0 - - 0.2
07/07:30pm 5.5 4.5 5.5 100 0.0 CALM 0 0 0 0 - - 0.2
07/07:00pm 5.4 4.3 5.3 99 0.0 CALM 0 0 0 0 - - 0.2
07/06:30pm 6.6 5.8 6.5 99 0.0 CALM 0 0 0 0 - - 0.2
07/06:00pm 7.6 6.8 6.5 93 0.5 CALM 0 0 0 0 - - 0.2
07/05:30pm 9.0 8.2 6.3 83 1.3 CALM 0 0 0 0 - - 0.2
07/05:00pm 10.9 10.1 6.5 74 2.1 CALM 0 0 0 0 - - 0.2
07/04:30pm 13.2 12.5 6.8 65 3.1 CALM 0 0 0 0 - - 0.2
07/04:00pm 13.3 12.5 6.4 63 3.3 CALM 0 0 0 0 - - 0.2
07/03:30pm 13.9 13.1 6.7 62 3.5 CALM 0 0 0 0 - - 0.2
07/03:00pm 13.3 12.4 6.2 62 3.4 CALM 0 0 0 0 - - 0.2
07/02:30pm 13.1 11.9 6.5 64 3.2 E 2 9 1 5 - - 0.2
07/02:00pm 13.7 13.0 7.0 64 3.3 CALM 0 0 0 0 - - 0.0
07/01:30pm 12.2 10.0 6.0 66 2.9 S 7 11 4 6 - - 0.0
07/01:00pm 12.4 10.4 6.9 69 2.7 SSE 7 11 4 6 - - 0.0
07/12:30pm 12.0 10.5 6.7 70 2.5 SSE 4 11 2 6 - - 0.0
07/12:00pm 12.2 10.4 7.9 75 2.1 ESE 7 11 4 6 - - 0.0
07/11:30am 11.3 10.6 7.0 75 2.1 CALM 0 0 0 0 - - 0.0
07/11:00am 11.2 9.6 8.1 81 1.5 E 6 9 3 5 - - 0.0
07/10:30am 10.1 9.9 9.2 94 0.4 CALM 0 0 0 0 - - 0.0
07/10:00am 7.8 - 7.9 - - CALM 0 0 0 0 - - 0.0
07/09:30am 6.6 5.8 6.6 100 0.0 CALM 0 0 0 0 - - 0.0
07/09:00am 4.4 3.2 4.4 100 0.0 CALM 0 0 0 0 - - 1.0
07/08:30am 2.0 0.3 2.0 100 0.0 CALM 0 0 0 0 - - 1.0
07/08:00am 1.5 -0.3 1.5 100 0.0 CALM 0 0 0 0 - - 1.0
07/07:30am 1.7 0.0 1.7 100 0.0 CALM 0 0 0 0 - - 1.0
07/07:00am 1.6 -0.1 1.6 100 0.0 CALM 0 0 0 0 - - 1.0
07/06:30am 1.7 0.0 1.7 100 0.0 CALM 0 0 0 0 - - 1.0
07/06:00am 1.0 -0.8 1.0 100 0.0 CALM 0 0 0 0 - - 1.0
07/05:30am 1.0 -0.8 1.0 100 0.0 CALM 0 0 0 0 - - 1.0
07/05:00am 1.2 -0.6 1.2 100 0.0 CALM 0 0 0 0 - - 1.0
07/04:30am 1.8 0.1 1.8 100 0.0 CALM 0 0 0 0 - - 1.0
07/04:00am 1.9 0.2 1.9 100 0.0 CALM 0 0 0 0 - - 1.0
07/03:30am 2.0 0.3 2.0 100 0.0 CALM 0 0 0 0 - - 1.0
07/03:00am 2.8 1.3 2.8 100 0.0 CALM 0 0 0 0 - - 1.0
07/02:30am 4.0 1.9 4.0 100 0.0 SSE 4 9 2 5 - - 1.0
07/02:00am 3.7 1.2 3.7 100 0.0 E 6 9 3 5 - - 1.0
07/01:30am 3.9 1.4 3.9 100 0.0 ESE 6 9 3 5 - - 1.0
07/01:00am 4.2 1.8 4.2 100 0.0 ESE 6 9 3 5 - - 1.0
07/12:30am 4.6 2.1 4.6 100 0.0 SE 7 11 4 6 - - 1.0
07/12:00am 4.4 3.2 4.4 100 0.0 CALM 0 0 0 0 - - 1.0
 
Date/Time
EST
Temp
°C
App
Temp
°C
Dew
Point
Rel
Hum
%
Delta-T
°C
Wind Press
QNH
hPa
Press
MSL
hPa
Rain
since 9 am
mm
Dir
 
Spd
km/h
Gust
km/h
Spd
kts
Gust
kts
06/11:30pm 4.4 2.0 4.4 100 0.0 SSE 6 7 3 4 - - 1.0
06/11:00pm 4.8 2.3 4.8 100 0.0 SE 7 9 4 5 - - 1.0
06/10:30pm 5.3 2.9 5.3 100 0.0 SSE 7 11 4 6 - - 1.0
06/10:00pm 5.4 3.6 5.4 100 0.0 SSE 4 11 2 6 - - 1.0
06/09:30pm 5.3 4.2 5.3 100 0.0 CALM 0 0 0 0 - - 1.0
06/09:00pm 5.3 4.2 5.3 100 0.0 CALM 0 0 0 0 - - 1.0
06/08:30pm 5.1 4.0 5.0 99 0.0 CALM 0 0 0 0 - - 1.0
06/08:00pm 6.0 5.1 5.9 99 0.0 CALM 0 0 0 0 - - 1.0
06/07:30pm 6.8 4.9 6.7 99 0.0 SE 6 9 3 5 - - 1.0
06/07:00pm 7.5 6.9 7.4 99 0.0 CALM 0 0 0 0 - - 1.0
06/06:30pm 7.6 7.0 7.5 99 0.0 CALM 0 0 0 0 - - 1.0
06/06:00pm 8.0 7.1 7.9 99 0.0 E 2 7 1 4 - - 1.0
06/05:30pm 8.1 6.9 8.0 99 0.0 E 4 9 2 5 - - 1.0
06/05:00pm 8.3 6.6 8.2 99 0.0 E 7 11 4 6 - - 1.0
06/04:30pm 8.4 6.7 8.3 99 0.0 E 7 11 4 6 - - 1.0
06/04:00pm 8.8 7.1 7.6 92 0.6 ENE 6 9 3 5 - - 0.6
06/03:30pm 9.3 7.3 7.1 86 1.0 E 7 15 4 8 - - 0.2
06/03:00pm 9.6 6.8 6.9 83 1.3 E 11 17 6 9 - - 0.2
06/02:30pm 9.8 7.1 5.6 75 1.9 E 9 15 5 8 - - 0.0
06/02:00pm 10.1 6.9 4.9 70 2.4 ENE 11 17 6 9 - - 0.0
06/01:30pm 10.0 6.8 5.0 71 2.3 ENE 11 19 6 10 - - 0.0
06/01:00pm 9.6 6.4 5.0 73 2.1 E 11 19 6 10 - - 0.0
06/12:30pm 9.3 6.5 5.1 75 1.9 ENE 9 15 5 8 - - 0.0
06/12:00pm 9.2 6.2 5.8 79 1.6 ENE 11 17 6 9 - - 0.0
06/11:30am 8.8 5.7 5.7 81 1.4 ENE 11 17 6 9 - - 0.0
06/11:00am 7.3 4.2 5.6 89 0.8 ENE 11 17 6 9 - - 0.0
06/10:30am 6.6 5.6 5.7 94 0.4 CALM 0 0 0 0 - - 0.0
06/10:00am 5.9 3.6 5.6 98 0.1 ENE 7 9 4 5 - - 0.0
06/09:30am 5.2 3.7 5.1 99 0.0 NE 2 11 1 6 - - 0.0
06/09:00am 4.6 2.2 4.5 99 0.0 E 6 9 3 5 - - 0.0
06/08:30am 4.0 2.7 3.9 99 0.0 CALM 0 0 0 0 - - 0.0
06/08:00am 3.6 2.2 3.5 99 0.0 CALM 0 0 0 0 - - 0.0
06/07:30am 3.3 1.9 3.3 100 0.0 CALM 0 0 0 0 - - 0.0
06/07:00am 3.1 1.6 3.1 100 0.0 CALM 0 0 0 0 - - 0.0
06/06:30am 2.9 1.4 2.9 100 0.0 CALM 0 0 0 0 - - 0.0
06/06:00am 2.4 0.8 2.4 100 0.0 CALM 0 0 0 0 - - 0.0
06/05:30am 2.3 0.7 2.3 100 0.0 CALM 0 0 0 0 - - 0.0
06/05:00am 1.8 -1.0 1.8 100 0.0 E 6 11 3 6 - - 0.0
06/04:30am 1.4 -0.4 1.4 100 0.0 CALM 0 0 0 0 - - 0.0
06/04:00am 0.8 -1.1 0.7 99 0.0 CALM 0 0 0 0 - - 0.0
06/03:30am 1.3 -0.5 1.3 100 0.0 CALM 0 0 0 0 - - 0.0
06/03:00am 1.5 -0.3 1.5 100 0.0 CALM 0 0 0 0 - - 0.0
06/02:30am 1.3 -0.5 1.2 99 0.0 CALM 0 0 0 0 - - 0.0
06/02:00am 1.3 -0.5 1.2 99 0.0 CALM 0 0 0 0 - - 0.0
06/01:30am 1.8 -1.1 1.7 99 0.0 E 6 7 3 4 - - 0.0
06/01:00am 2.0 -0.4 1.9 99 0.0 ENE 4 11 2 6 - - 0.0
06/12:30am 2.3 0.7 2.2 99 0.0 CALM 0 0 0 0 - - 0.0
06/12:00am 2.8 1.2 2.7 99 0.0 CALM 0 0 0 0 - - 0.0
 
Date/Time
EST
Temp
°C
App
Temp
°C
Dew
Point
Rel
Hum
%
Delta-T
°C
Wind Press
QNH
hPa
Press
MSL
hPa
Rain
since 9 am
mm
Dir
 
Spd
km/h
Gust
km/h
Spd
kts
Gust
kts
05/11:30pm 3.1 1.6 3.0 99 0.0 CALM 0 0 0 0 - - 0.0
05/11:00pm 3.5 1.3 3.1 97 0.2 ENE 4 7 2 4 - - 0.0
05/10:30pm 3.9 0.7 3.2 95 0.3 ENE 9 11 5 6 - - 0.0
05/10:00pm 3.6 0.8 2.9 95 0.3 NE 7 9 4 5 - - 0.0
05/09:30pm 3.8 1.1 2.9 94 0.4 ENE 6 11 3 6 - - 0.0
05/09:00pm 4.2 2.7 3.2 93 0.4 CALM 0 0 0 0 - - 0.0
05/08:30pm 4.4 3.0 3.5 94 0.4 CALM 0 0 0 0 - - 0.0
05/08:00pm 4.7 3.3 3.8 94 0.4 CALM 0 0 0 0 - - 0.0
05/07:30pm 4.3 2.9 3.6 95 0.3 CALM 0 0 0 0 - - 0.0
05/07:00pm 5.2 3.9 4.2 93 0.4 CALM 0 0 0 0 - - 0.0
05/06:30pm 5.3 3.9 3.5 88 0.8 CALM 0 0 0 0 - - 0.0
05/06:00pm 6.3 4.9 3.5 82 1.2 CALM 0 0 0 0 - - 0.0
05/05:30pm 7.9 6.4 2.8 70 2.2 CALM 0 0 0 0 - - 0.0
05/05:00pm 9.5 6.9 3.0 64 2.8 N 6 9 3 5 - - 0.0
05/04:30pm 11.1 7.5 3.2 58 3.5 NNW 11 15 6 8 - - 0.0
05/04:00pm 12.2 9.0 3.2 54 4.0 N 9 13 5 7 - - 0.0
05/03:30pm 12.6 9.1 3.5 54 4.1 NNW 11 19 6 10 - - 0.0
05/03:00pm 12.8 8.9 3.5 53 4.2 NNW 13 20 7 11 - - 0.0
05/02:30pm 13.0 9.2 3.9 54 4.1 NNW 13 20 7 11 - - 0.0
05/02:00pm 12.7 8.8 3.6 54 4.1 N 13 19 7 10 - - 0.0
05/01:30pm 13.0 8.8 3.9 54 4.1 N 15 24 8 13 - - 0.0
05/01:00pm 12.7 9.0 4.4 57 3.8 NNW 13 19 7 10 - - 0.0
05/12:30pm 11.4 7.5 3.2 57 3.6 NNW 13 22 7 12 - - 0.0
05/12:00pm 11.2 8.4 3.3 58 3.5 NNW 7 13 4 7 - - 0.0
05/11:30am 10.9 7.6 4.4 64 2.9 NNW 11 15 6 8 - - 0.0
05/11:00am 10.2 6.8 3.9 65 2.8 NNW 11 15 6 8 - - 0.0
05/10:30am 9.1 6.1 4.3 72 2.1 NNW 9 15 5 8 - - 0.0
05/10:00am 8.1 5.1 4.1 76 1.7 N 9 13 5 7 - - 0.0
05/09:30am 6.8 4.3 4.8 87 0.9 NE 7 11 4 6 - - 0.0
05/09:00am 5.6 4.2 3.8 88 0.8 CALM 0 0 0 0 - - 0.0
05/08:30am 5.0 3.7 4.0 93 0.4 CALM 0 0 0 0 - - 0.0
05/08:00am 4.4 3.1 4.0 97 0.2 CALM 0 0 0 0 - - 0.0
05/07:30am 4.2 2.9 4.1 99 0.0 CALM 0 0 0 0 - - 0.0
05/07:00am 4.0 2.3 3.9 99 0.0 N 2 7 1 4 - - 0.0
05/06:30am 3.9 2.5 3.8 99 0.0 CALM 0 0 0 0 - - 0.0
05/06:00am 3.7 2.3 3.6 99 0.0 CALM 0 0 0 0 - - 0.0
05/05:30am 3.5 2.1 3.4 99 0.0 CALM 0 0 0 0 - - 0.0
05/05:00am 3.1 1.6 3.1 100 0.0 CALM 0 0 0 0 - - 0.0
05/04:30am 2.6 1.0 2.6 100 0.0 CALM 0 0 0 0 - - 0.0
05/04:00am 1.3 -0.5 1.2 99 0.0 CALM 0 0 0 0 - - 0.0
05/03:30am 1.1 -0.7 1.0 99 0.0 CALM 0 0 0 0 - - 0.0
05/03:00am 1.4 -0.4 1.3 99 0.0 CALM 0 0 0 0 - - 0.0
05/02:30am 1.7 0.0 1.6 99 0.0 CALM 0 0 0 0 - - 0.0
05/02:00am 1.5 -0.3 1.4 99 0.0 CALM 0 0 0 0 - - 0.0
05/01:30am 1.6 -0.2 1.5 99 0.0 CALM 0 0 0 0 - - 0.0
05/01:00am 2.1 0.4 2.0 99 0.0 CALM 0 0 0 0 - - 0.0
05/12:30am 3.1 1.6 3.0 99 0.0 CALM 0 0 0 0 - - 0.0
05/12:00am 3.5 2.1 3.4 99 0.0 CALM 0 0 0 0 - - 0.0
 
Date/Time
EST
Temp
°C
App
Temp
°C
Dew
Point
Rel
Hum
%
Delta-T
°C
Wind Press
QNH
hPa
Press
MSL
hPa
Rain
since 9 am
mm
Dir
 
Spd
km/h
Gust
km/h
Spd
kts
Gust
kts
04/11:30pm 3.7 2.3 3.4 98 0.1 CALM 0 0 0 0 - - 0.0
04/11:00pm 3.8 2.1 2.0 88 0.7 CALM 0 0 0 0 - - 0.0
04/10:30pm 5.0 3.5 2.9 86 0.9 CALM 0 0 0 0 - - 0.0
04/10:00pm 5.7 4.2 3.0 83 1.1 CALM 0 0 0 0 - - 0.0

Other Formats:

Comma delimited format used in spreadsheet applications
http://www.bom.gov.au/fwo/IDV60801/IDV60801.95833.axf

JavaScript Object Notation format (JSON) in row-major order
http://www.bom.gov.au/fwo/IDV60801/IDV60801.95833.json